createdAt,value
2018-01-26T07:35:21.420Z,2.80
2018-01-26T07:37:49.502Z,6.70
2018-01-26T07:40:17.394Z,7.17
2018-01-26T07:42:45.301Z,6.30
2018-01-26T07:45:13.196Z,6.73
2018-01-26T07:47:41.271Z,6.00
2018-01-26T07:50:09.388Z,7.10
2018-01-26T07:52:37.181Z,6.90
2018-01-26T07:55:06.532Z,7.40
2018-01-26T07:57:35.310Z,6.90
2018-01-26T08:00:03.173Z,7.70
2018-01-26T08:02:31.052Z,6.73
2018-01-26T08:04:59.915Z,7.30
2018-01-26T08:07:27.889Z,6.80
2018-01-26T08:09:55.630Z,6.87
2018-01-26T08:12:23.733Z,7.47
2018-01-26T08:14:51.633Z,6.87
2018-01-26T08:17:19.458Z,7.13
2018-01-26T08:19:47.314Z,7.80
2018-01-26T08:22:15.136Z,8.30
2018-01-26T08:24:42.983Z,7.57
2018-01-26T08:27:11.061Z,8.33
2018-01-26T08:29:39.063Z,6.60
2018-01-26T08:32:07.171Z,6.73
2018-01-26T08:34:35.915Z,7.10
2018-01-26T08:37:04.027Z,7.40
2018-01-26T08:39:32.423Z,6.77
2018-01-26T08:42:00.312Z,9.20
2018-01-26T08:44:28.273Z,8.57
2018-01-26T08:46:56.438Z,8.17
2018-01-26T08:49:24.507Z,8.60
2018-01-26T08:51:52.508Z,8.93
2018-01-26T08:54:20.560Z,8.63
2018-01-26T08:56:48.885Z,9.73
2018-01-26T08:59:18.060Z,9.63
2018-01-26T09:01:45.938Z,8.93
2018-01-26T09:04:13.887Z,10.67
2018-01-26T09:06:41.992Z,9.23
2018-01-26T09:09:09.952Z,9.00
2018-01-26T09:11:37.896Z,9.00
2018-01-26T09:14:06.013Z,10.70
2018-01-26T09:16:33.783Z,10.50
2018-01-26T09:19:01.757Z,10.93
2018-01-26T09:21:29.782Z,9.67
2018-01-26T09:23:58.342Z,10.00
2018-01-26T09:26:26.142Z,11.03
2018-01-26T09:28:53.946Z,10.57
2018-01-26T09:31:21.690Z,9.53
2018-01-26T09:33:49.661Z,9.37
2018-01-26T09:36:17.718Z,9.23
2018-01-26T09:38:45.894Z,8.87
2018-01-26T09:41:13.677Z,9.10
2018-01-26T09:43:41.549Z,8.33
2018-01-26T09:46:09.368Z,8.97
2018-01-26T09:48:37.392Z,9.03
2018-01-26T09:51:05.381Z,8.67
2018-01-26T09:53:33.410Z,9.53
2018-01-26T09:56:01.521Z,8.57
2018-01-26T09:58:29.549Z,8.73
2018-01-26T10:00:57.388Z,8.07
2018-01-26T10:03:25.552Z,8.30
2018-01-26T10:05:53.351Z,8.53
2018-01-26T10:08:21.382Z,8.73
2018-01-26T10:10:49.870Z,8.97
2018-01-26T10:13:17.971Z,8.27
2018-01-26T10:15:46.982Z,8.63
2018-01-26T10:18:14.785Z,9.20
2018-01-26T10:20:42.769Z,8.93
2018-01-26T10:23:10.767Z,8.93
2018-01-26T10:25:39.342Z,9.30
2018-01-26T10:28:07.168Z,9.80
2018-01-26T10:30:35.287Z,10.00
2018-01-26T10:33:03.266Z,8.70
2018-01-26T10:35:31.404Z,9.30
2018-01-26T10:37:59.187Z,9.40
2018-01-26T10:40:26.974Z,9.73
2018-01-26T10:42:54.916Z,10.17
2018-01-26T10:45:23.152Z,10.73
2018-01-26T10:47:50.924Z,11.13
2018-01-26T10:50:19.117Z,11.47
2018-01-26T10:52:46.912Z,11.47
2018-01-26T10:55:14.668Z,12.13
2018-01-26T10:57:42.733Z,12.20
2018-01-26T11:00:11.541Z,11.23
2018-01-26T11:02:39.562Z,12.60
2018-01-26T11:05:07.897Z,12.97
2018-01-26T11:07:35.680Z,12.70
2018-01-26T11:10:03.575Z,12.80
2018-01-26T11:12:31.662Z,12.70
2018-01-26T11:14:59.941Z,14.40
2018-01-26T11:17:27.767Z,13.80
2018-01-26T11:19:55.615Z,14.97
2018-01-26T11:22:23.633Z,14.90
2018-01-26T11:24:51.705Z,13.80
2018-01-26T11:27:19.601Z,13.10
2018-01-26T11:29:47.862Z,13.37
2018-01-26T11:32:15.987Z,14.30
2018-01-26T11:34:44.192Z,13.87
2018-01-26T11:37:12.248Z,14.57
2018-01-26T11:39:40.242Z,14.73
2018-01-26T11:42:08.226Z,14.30
